Time;durP1;ratioP1;P1;durP2;ratioP2;P2;SDS_P1;SDS_P2;PMS_P1;PMS_P2;Temp;Humidity;BMP_temperature;BMP_pressure;BME280_temperature;BME280_humidity;BME280_pressure;Samples;Min_cycle;Max_cycle;Signal;HPM_P1;HPM_P2
2021/05/06 00:32:11;;;;;;;0.40;0.40;;;;;;;3.13;86.95;98294.31;5081550;28;20027;-64
2021/05/06 00:34:36;;;;;;;0.40;0.40;;;;;;;3.15;86.94;98292.56;5081664;28;20044;-62
2021/05/06 00:37:02;;;;;;;0.40;0.40;;;;;;;3.15;87.13;98294.28;5081864;28;20020;-63
2021/05/06 00:39:41;;;;;;;0.40;0.40;;;;;;;3.17;87.01;98295.97;5081244;28;20036;-63
2021/05/06 00:42:26;;;;;;;0.40;0.40;;;;;;;3.18;86.95;98299.41;5081108;28;20024;-63
2021/05/06 01:06:04;;;;;;;0.40;0.40;;;;;;;3.12;86.61;98313.13;5073176;28;20486;-64
2021/05/06 01:08:33;;;;;;;0.35;0.35;;;;;;;3.15;86.74;98310.53;5063617;28;20115;-63
2021/05/06 01:11:12;;;;;;;0.40;0.40;;;;;;;3.13;86.56;98326.81;5062066;28;20024;-64
2021/05/06 01:13:39;;;;;;;0.30;0.30;;;;;;;3.15;86.60;98320.78;5063290;28;20071;-63
2021/05/06 01:16:05;;;;;;;0.35;0.35;;;;;;;3.15;86.62;98325.91;5063274;28;20025;-64
2021/05/06 01:18:31;;;;;;;0.30;0.30;;;;;;;3.16;86.54;98335.31;5063217;28;20029;-64
2021/05/06 01:20:59;;;;;;;0.40;0.40;;;;;;;3.15;86.60;98318.22;5063155;28;20029;-65
2021/05/06 01:23:27;;;;;;;0.30;0.30;;;;;;;3.16;86.57;98332.75;5063565;28;20025;-64
2021/05/06 01:25:57;;;;;;;0.40;0.40;;;;;;;3.18;86.26;98333.56;5063435;28;20017;-63
2021/05/06 01:28:26;;;;;;;0.40;0.40;;;;;;;3.12;86.52;98330.22;5062927;28;20481;-63
2021/05/06 01:34:05;;;;;;;0.30;0.30;;;;;;;3.11;86.52;98344.78;5063313;28;20029;-64
2021/05/06 01:36:36;;;;;;;0.35;0.35;;;;;;;3.07;86.53;98333.69;5063056;28;20017;-65
2021/05/06 01:41:55;;;;;;;0.40;0.40;;;;;;;3.13;86.53;98345.59;5063026;28;20043;-64
2021/05/06 02:00:05;;;;;;;0.40;0.40;;;;;;;3.11;86.17;98337.09;5063182;28;20049;-64
2021/05/06 02:02:30;;;;;;;0.45;0.45;;;;;;;3.10;86.37;98353.31;5062669;28;20025;-63
2021/05/06 02:04:56;;;;;;;0.40;0.40;;;;;;;3.10;86.43;98353.31;5067176;28;20104;-64
2021/05/06 02:07:21;;;;;;;0.40;0.40;;;;;;;3.13;86.32;98352.44;5067130;28;20029;-64
2021/05/06 02:09:48;;;;;;;0.30;0.30;;;;;;;3.11;86.36;98360.16;5067093;28;20028;-64
2021/05/06 02:12:15;;;;;;;0.40;0.40;;;;;;;3.12;86.43;98354.16;5066752;28;20051;-63
2021/05/06 02:14:46;;;;;;;0.40;0.40;;;;;;;3.10;86.68;98363.56;5066997;28;20029;-64
2021/05/06 02:17:12;;;;;;;0.40;0.40;;;;;;;3.11;86.47;98360.16;5067047;28;20423;-64
2021/05/06 02:19:40;;;;;;;0.40;0.40;;;;;;;3.06;86.53;98355.09;5066793;28;20021;-64
2021/05/06 02:22:08;;;;;;;0.30;0.30;;;;;;;3.14;86.25;98359.25;5066928;28;20017;-64
2021/05/06 02:24:34;;;;;;;0.40;0.40;;;;;;;3.15;86.45;98368.66;5067130;28;20021;-64
2021/05/06 02:26:59;;;;;;;0.40;0.40;;;;;;;3.12;86.42;98361.84;5066536;28;20488;-64
2021/05/06 02:29:25;;;;;;;0.40;0.40;;;;;;;3.14;86.33;98365.25;5066539;28;20032;-64
2021/05/06 02:31:50;;;;;;;0.40;0.40;;;;;;;3.12;86.36;98366.97;5066955;28;20036;-63
2021/05/06 02:34:15;;;;;;;0.40;0.40;;;;;;;3.14;85.98;98360.13;5066682;28;20032;-63
2021/05/06 02:36:41;;;;;;;0.35;0.35;;;;;;;3.12;86.25;98369.53;5066818;28;20028;-62
2021/05/06 02:39:06;;;;;;;0.40;0.40;;;;;;;3.10;86.00;98364.44;5066552;28;20029;-63
2021/05/06 02:41:31;;;;;;;0.30;0.30;;;;;;;3.12;86.00;98377.22;5066607;28;20016;-63
2021/05/06 02:43:57;;;;;;;0.40;0.40;;;;;;;3.10;86.25;98372.13;5066226;28;20473;-64
2021/05/06 02:46:25;;;;;;;0.30;0.30;;;;;;;3.08;86.21;98378.16;5066361;28;20028;-63
2021/05/06 02:48:50;;;;;;;0.40;0.40;;;;;;;3.11;85.83;98375.53;5066216;28;20025;-62
2021/05/06 02:51:16;;;;;;;0.40;0.40;;;;;;;3.07;86.15;98379.00;5066475;28;20035;-62
2021/05/06 02:53:49;;;;;;;0.40;0.40;;;;;;;3.12;86.22;98373.81;5066287;28;20304;-61
2021/05/06 02:56:25;;;;;;;0.40;0.40;;;;;;;3.13;85.91;98385.78;5066397;28;20063;-62
2021/05/06 03:04:04;;;;;;;0.40;0.40;;;;;;;3.11;85.86;98401.19;5066153;28;20059;-62
2021/05/06 03:06:35;;;;;;;0.30;0.30;;;;;;;3.12;85.29;98379.78;5066069;28;20021;-61
2021/05/06 03:09:10;;;;;;;0.40;0.40;;;;;;;3.12;84.84;98390.06;5066027;28;20028;-63
2021/05/06 03:24:32;;;;;;;2.40;1.30;;;;;;;3.06;85.78;98385.84;5065815;28;20035;-64
2021/05/06 03:26:59;;;;;;;1.52;1.20;;;;;;;3.09;85.55;98397.78;5065353;28;20055;-63
2021/05/06 03:42:34;;;;;;;2.03;1.17;;;;;;;2.94;85.35;98411.63;5065080;28;20032;-64
2021/05/06 04:22:12;;;;;;;2.53;1.33;;;;;;;3.17;84.92;98452.41;5064455;28;20284;-62
2021/05/06 04:27:25;;;;;;;2.20;1.60;;;;;;;3.19;84.81;98447.25;5064223;28;20075;-64
2021/05/06 04:37:55;;;;;;;4.30;2.00;;;;;;;3.07;84.96;98459.31;5064247;28;20421;-63
2021/05/06 04:58:52;;;;;;;4.28;2.03;;;;;;;3.08;84.86;98457.63;5063463;28;20025;-67
2021/05/06 05:04:13;;;;;;;3.28;1.80;;;;;;;3.14;84.73;98485.78;5063927;28;20032;-68
2021/05/06 05:06:44;;;;;;;3.20;2.10;;;;;;;3.20;84.40;98483.16;5062401;28;20017;-67
2021/05/06 05:25:05;;;;;;;3.13;2.10;;;;;;;3.01;84.32;98502.97;5063458;28;20039;-67
2021/05/06 05:27:31;;;;;;;3.45;2.17;;;;;;;2.99;84.63;98508.97;5063002;28;20053;-65
2021/05/06 05:29:56;;;;;;;3.35;1.95;;;;;;;2.97;84.55;98502.13;5063357;28;20028;-64
2021/05/06 05:32:22;;;;;;;4.05;2.10;;;;;;;2.93;84.43;98518.41;5063792;28;20017;-64
2021/05/06 05:37:31;;;;;;;3.75;1.73;;;;;;;2.81;84.44;98513.38;5062761;28;20025;-64
2021/05/06 05:43:09;;;;;;;2.42;1.85;;;;;;;2.69;83.96;98522.00;5080548;28;20334;-63
2021/05/06 05:56:27;;;;;;;4.05;2.30;;;;;;;2.54;84.32;98535.78;5080896;28;20036;-68
2021/05/06 05:58:54;;;;;;;2.25;1.60;;;;;;;2.53;84.39;98531.50;5080111;28;20053;-67
2021/05/06 06:01:19;;;;;;;5.18;1.92;;;;;;;2.54;84.75;98543.47;5080621;28;20060;-66
2021/05/06 06:03:44;;;;;;;3.85;2.20;;;;;;;2.59;84.79;98539.13;5080498;28;20016;-66
2021/05/06 06:06:10;;;;;;;5.35;2.65;;;;;;;2.62;84.92;98539.13;5080139;28;20028;-66
2021/05/06 06:08:37;;;;;;;3.05;2.20;;;;;;;2.70;84.72;98534.81;5080063;28;20047;-67
2021/05/06 06:11:03;;;;;;;3.15;2.47;;;;;;;2.65;84.37;98528.84;5080275;28;20084;-65
2021/05/06 06:13:29;;;;;;;3.35;2.05;;;;;;;2.66;84.60;98543.38;5073698;28;20344;-65
2021/05/06 06:21:01;;;;;;;7.50;2.95;;;;;;;2.71;84.63;98538.22;5063263;28;20497;-68
2021/05/06 06:23:27;;;;;;;4.15;2.58;;;;;;;2.73;84.48;98557.84;5062079;28;20028;-67
2021/05/06 06:25:53;;;;;;;3.72;2.45;;;;;;;2.75;84.71;98559.56;5063283;28;20059;-66
2021/05/06 06:28:19;;;;;;;2.50;2.20;;;;;;;2.76;84.83;98554.44;5062729;28;20056;-66
2021/05/06 06:30:44;;;;;;;3.42;2.63;;;;;;;2.75;84.57;98546.75;5063272;28;20049;-69
2021/05/06 06:33:09;;;;;;;6.05;2.53;;;;;;;2.75;84.28;98562.97;5063007;28;20025;-68
2021/05/06 06:35:35;;;;;;;4.00;2.20;;;;;;;2.76;84.28;98563.81;5063113;28;20024;-68
2021/05/06 06:38:00;;;;;;;3.20;2.33;;;;;;;2.71;84.30;98548.47;5063059;28;20033;-68
2021/05/06 06:40:26;;;;;;;4.28;2.50;;;;;;;2.71;84.46;98564.72;5063091;28;20025;-68
2021/05/06 06:42:51;;;;;;;3.65;2.65;;;;;;;2.76;84.46;98568.94;5062725;28;20048;-67
2021/05/06 06:45:16;;;;;;;4.13;2.05;;;;;;;2.79;84.12;98558.66;5062896;28;20067;-67
2021/05/06 06:47:42;;;;;;;2.70;1.98;;;;;;;2.78;83.66;98562.09;5062957;28;20021;-67
2021/05/06 06:50:07;;;;;;;5.00;2.13;;;;;;;2.71;83.92;98574.97;5065969;28;20029;-66
2021/05/06 06:52:33;;;;;;;3.65;2.25;;;;;;;2.69;83.49;98561.28;5066544;28;20043;-66
2021/05/06 06:54:58;;;;;;;3.83;2.33;;;;;;;2.68;83.62;98586.94;5066535;28;20025;-67
2021/05/06 06:57:24;;;;;;;4.15;2.13;;;;;;;2.66;84.23;98575.81;5066096;28;20035;-66
2021/05/06 06:59:49;;;;;;;3.17;1.67;;;;;;;2.81;84.23;98585.97;5065908;28;20074;-69
2021/05/06 07:02:14;;;;;;;3.08;1.45;;;;;;;2.84;83.34;98593.66;5066399;28;20028;-69
2021/05/06 07:04:40;;;;;;;5.30;2.40;;;;;;;2.72;83.02;98583.47;5066444;28;20032;-70
2021/05/06 07:07:05;;;;;;;3.45;1.98;;;;;;;2.66;83.25;98594.63;5066279;28;20028;-71
2021/05/06 07:09:31;;;;;;;2.40;2.00;;;;;;;2.65;83.58;98610.00;5066212;28;20021;-69
2021/05/06 07:11:56;;;;;;;4.65;2.38;;;;;;;2.63;83.53;98601.47;5066331;28;20032;-68
2021/05/06 07:14:21;;;;;;;3.33;2.50;;;;;;;2.69;83.55;98614.25;5066032;28;20092;-66
2021/05/06 07:16:47;;;;;;;4.40;2.47;;;;;;;2.69;83.29;98609.97;5066161;28;20024;-68
2021/05/06 07:19:13;;;;;;;2.90;2.08;;;;;;;2.65;83.52;98604.88;5066029;28;20076;-67
2021/05/06 07:21:38;;;;;;;2.65;2.08;;;;;;;2.73;83.74;98601.41;5065783;28;20462;-67
2021/05/06 07:24:04;;;;;;;3.65;2.45;;;;;;;2.79;83.67;98613.34;5066044;28;20071;-67
2021/05/06 07:26:31;;;;;;;3.05;1.92;;;;;;;2.72;83.71;98586.91;5065936;28;20047;-70
2021/05/06 07:28:56;;;;;;;3.80;2.90;;;;;;;2.92;83.69;98624.38;5065334;28;20051;-65
2021/05/06 07:31:21;;;;;;;2.92;2.10;;;;;;;3.00;83.71;98601.25;5065681;28;20025;-67
2021/05/06 07:33:49;;;;;;;3.67;2.17;;;;;;;3.13;83.48;98625.09;5065978;28;20428;-67
2021/05/06 07:36:16;;;;;;;3.47;2.65;;;;;;;3.24;83.02;98619.03;5065699;28;20037;-65
2021/05/06 07:38:42;;;;;;;5.07;2.38;;;;;;;3.15;83.00;98610.56;5065910;28;20495;-67
2021/05/06 07:41:11;;;;;;;4.15;2.38;;;;;;;3.29;83.06;98625.00;5065632;28;20032;-66
2021/05/06 07:43:36;;;;;;;4.30;2.65;;;;;;;3.18;83.27;98615.66;5065344;28;20043;-65
2021/05/06 07:46:01;;;;;;;3.63;2.50;;;;;;;3.34;83.07;98625.78;5065581;28;20025;-66
2021/05/06 07:48:27;;;;;;;4.70;3.85;;;;;;;3.31;83.12;98624.13;5065369;28;20486;-66
2021/05/06 07:50:53;;;;;;;5.13;2.80;;;;;;;3.34;82.90;98634.34;5065427;28;20032;-66
2021/05/06 07:53:26;;;;;;;4.38;3.30;;;;;;;3.39;82.90;98636.88;5065484;28;20381;-65
2021/05/06 07:55:53;;;;;;;5.40;3.20;;;;;;;3.44;82.90;98634.28;5065339;28;20044;-66
2021/05/06 07:58:19;;;;;;;5.13;3.05;;;;;;;3.47;83.08;98644.50;5064954;28;20028;-65
2021/05/06 08:00:45;;;;;;;4.70;2.45;;;;;;;3.52;83.12;98650.47;5063982;28;20048;-65
2021/05/06 08:03:11;;;;;;;4.25;2.55;;;;;;;3.60;83.33;98660.66;5065329;28;20431;-67
2021/05/06 08:05:37;;;;;;;6.40;3.15;;;;;;;3.69;83.07;98654.63;5065166;28;20032;-66
2021/05/06 08:08:03;;;;;;;5.00;2.67;;;;;;;3.70;82.64;98643.47;5065082;28;20381;-67
2021/05/06 08:10:29;;;;;;;4.88;3.03;;;;;;;3.73;82.79;98658.84;5065080;28;20107;-65
2021/05/06 08:12:56;;;;;;;5.15;2.67;;;;;;;3.87;83.45;98678.41;5064542;28;20024;-65
2021/05/06 08:15:22;;;;;;;4.60;2.28;;;;;;;3.96;82.98;98679.16;5064877;28;20070;-66
2021/05/06 08:17:49;;;;;;;4.43;2.50;;;;;;;4.06;82.66;98687.66;5064819;28;20052;-68
2021/05/06 08:20:15;;;;;;;3.88;2.38;;;;;;;4.06;81.98;98668.81;5064812;28;20029;-69
2021/05/06 08:22:41;;;;;;;4.43;2.85;;;;;;;3.99;81.92;98682.59;5063291;28;20596;-68
2021/05/06 08:25:08;;;;;;;3.90;2.70;;;;;;;3.91;81.91;98686.09;5064672;28;20024;-69
2021/05/06 08:27:34;;;;;;;4.28;2.58;;;;;;;3.93;82.19;98679.19;5064252;28;20036;-69
2021/05/06 08:30:00;;;;;;;7.50;3.30;;;;;;;3.93;82.16;98692.03;5064400;28;20097;-69
2021/05/06 08:32:27;;;;;;;3.60;2.55;;;;;;;3.99;82.65;98677.44;5064748;28;20024;-68
2021/05/06 08:34:52;;;;;;;3.92;2.50;;;;;;;4.11;82.03;98692.72;5064695;28;20024;-68
2021/05/06 08:37:18;;;;;;;3.42;2.33;;;;;;;4.12;81.28;98699.56;5064601;28;20048;-67
2021/05/06 08:39:44;;;;;;;3.28;2.22;;;;;;;4.07;81.27;98697.03;5064557;28;20094;-69
2021/05/06 08:42:11;;;;;;;4.28;2.60;;;;;;;3.97;81.42;98698.88;5064348;28;20029;-67
2021/05/06 08:44:37;;;;;;;5.43;3.38;;;;;;;3.97;81.37;98696.31;5064163;28;20085;-68
2021/05/06 08:47:05;;;;;;;3.05;2.28;;;;;;;4.10;81.52;98714.16;5064171;28;20021;-69
2021/05/06 08:49:35;;;;;;;5.28;2.92;;;;;;;4.14;81.20;98715.81;5064351;28;20032;-69
2021/05/06 08:52:09;;;;;;;3.50;1.77;;;;;;;4.21;80.57;98709.78;5064664;28;20025;-68
2021/05/06 08:54:35;;;;;;;4.93;2.45;;;;;;;4.14;80.59;98713.25;5064538;28;20024;-68
2021/05/06 08:57:00;;;;;;;2.75;2.15;;;;;;;4.22;80.84;98718.31;5064512;28;20016;-68
2021/05/06 08:59:27;;;;;;;3.45;2.67;;;;;;;4.22;80.77;98726.88;5063655;28;20052;-67
2021/05/06 09:01:54;;;;;;;3.05;2.25;;;;;;;4.37;80.55;98717.31;5064064;28;20028;-67
2021/05/06 09:04:20;;;;;;;4.45;2.05;;;;;;;4.42;80.49;98722.41;5064754;28;20017;-68
2021/05/06 09:07:10;;;;;;;3.00;2.40;;;;;;;4.42;80.71;98733.56;5064239;28;20039;-67
2021/05/06 09:09:36;;;;;;;5.03;2.50;;;;;;;4.53;80.64;98722.28;5064175;28;20021;-68
2021/05/06 09:12:06;;;;;;;10.18;5.53;;;;;;;4.63;80.98;98741.91;5064011;28;20025;-67
2021/05/06 09:14:45;;;;;;;3.50;2.47;;;;;;;4.81;81.15;98734.81;5063720;28;20028;-69
2021/05/06 09:17:34;;;;;;;7.47;2.83;;;;;;;4.94;80.93;98741.53;5079233;28;20025;-68
2021/05/06 09:20:05;;;;;;;4.45;2.45;;;;;;;5.03;80.53;98750.00;5063848;28;20025;-68
2021/05/06 09:22:41;;;;;;;4.57;3.08;;;;;;;5.00;80.08;98750.88;5064091;28;20017;-68
2021/05/06 09:25:31;;;;;;;3.72;2.55;;;;;;;5.03;80.93;98753.41;5062337;28;20021;-68
2021/05/06 09:28:07;;;;;;;5.35;2.72;;;;;;;5.09;80.74;98752.50;5063531;28;20029;-68
2021/05/06 09:30:54;;;;;;;5.38;3.15;;;;;;;5.10;80.79;98756.75;5063810;28;20021;-68
2021/05/06 09:33:27;;;;;;;4.53;3.10;;;;;;;5.10;80.10;98761.91;5063547;28;20133;-68
2021/05/06 09:35:52;;;;;;;5.90;3.10;;;;;;;4.94;79.25;98762.09;5063800;28;20517;-68
2021/05/06 09:38:26;;;;;;;8.45;3.13;;;;;;;4.87;79.29;98755.34;5063660;28;20047;-69
2021/05/06 09:40:52;;;;;;;4.82;3.60;;;;;;;4.83;79.32;98759.66;5063811;28;20046;-68
2021/05/06 09:43:26;;;;;;;4.65;3.47;;;;;;;4.84;79.53;98765.63;5063227;28;20036;-68
2021/05/06 09:45:53;;;;;;;6.18;3.78;;;;;;;4.82;79.32;98763.09;5063471;28;20082;-68
2021/05/06 09:48:22;;;;;;;5.55;3.10;;;;;;;4.76;78.84;98782.91;5063493;28;20040;-67
2021/05/06 09:50:51;;;;;;;5.75;2.97;;;;;;;4.72;78.43;98776.94;5063500;28;20040;-68
2021/05/06 09:53:21;;;;;;;7.07;3.42;;;;;;;4.63;78.59;98780.47;5063893;28;20021;-69
2021/05/06 09:55:47;;;;;;;5.28;3.17;;;;;;;4.54;78.76;98783.97;5063488;28;20092;-67
2021/05/06 09:58:14;;;;;;;4.75;3.33;;;;;;;4.55;79.29;98789.97;5063284;28;20031;-67
2021/05/06 10:00:39;;;;;;;6.30;3.38;;;;;;;4.58;79.71;98790.75;5063188;28;20041;-67
2021/05/06 10:03:16;;;;;;;8.52;3.42;;;;;;;4.65;79.88;98794.13;5063625;28;20068;-68
2021/05/06 10:05:43;;;;;;;7.65;4.05;;;;;;;4.62;78.75;98791.59;5063297;28;20029;-67
2021/05/06 10:08:09;;;;;;;7.05;3.08;;;;;;;4.61;78.38;98794.19;5063241;28;20036;-67
2021/05/06 10:10:36;;;;;;;5.43;3.55;;;;;;;4.54;79.06;98793.38;5063511;28;20024;-66
2021/05/06 10:13:03;;;;;;;8.82;3.58;;;;;;;4.59;79.78;98794.19;5062948;28;20013;-68
2021/05/06 10:15:29;;;;;;;5.82;3.28;;;;;;;4.67;79.75;98810.41;5063602;28;20071;-67
2021/05/06 10:17:56;;;;;;;5.00;2.95;;;;;;;4.75;79.51;98796.59;5063489;28;20056;-67
2021/05/06 10:20:24;;;;;;;6.38;3.33;;;;;;;4.88;79.86;98805.03;5063336;28;20088;-67
2021/05/06 10:22:51;;;;;;;4.53;2.70;;;;;;;5.04;79.12;98798.00;5078809;28;20039;-66
2021/05/06 10:25:22;;;;;;;4.43;3.05;;;;;;;5.02;78.51;98807.44;5066841;28;20073;-68
2021/05/06 10:27:48;;;;;;;5.82;3.15;;;;;;;5.00;77.62;98801.50;5066839;28;20025;-67
2021/05/06 10:30:15;;;;;;;5.60;2.75;;;;;;;4.91;77.54;98823.00;5066808;28;20031;-67
2021/05/06 10:32:42;;;;;;;4.85;3.03;;;;;;;4.84;77.66;98814.50;5067038;28;20025;-67
2021/05/06 10:35:13;;;;;;;4.68;3.13;;;;;;;4.82;78.25;98822.22;5065869;28;20115;-67
2021/05/06 10:37:59;;;;;;;6.20;4.10;;;;;;;4.92;79.32;98829.88;5066786;28;20032;-68
2021/05/06 10:40:26;;;;;;;3.30;2.30;;;;;;;5.07;79.00;98828.84;5066526;28;20033;-67
2021/05/06 10:42:54;;;;;;;5.45;2.85;;;;;;;5.15;78.93;98836.47;5066757;28;20016;-67
2021/05/06 10:45:22;;;;;;;5.15;2.88;;;;;;;5.29;79.14;98839.72;5066493;28;20129;-67
2021/05/06 10:47:57;;;;;;;5.65;2.85;;;;;;;5.40;78.37;98833.59;5066736;28;20036;-67
2021/05/06 10:50:40;;;;;;;3.80;2.83;;;;;;;5.37;77.17;98837.06;5066622;28;20024;-67
2021/05/06 10:53:08;;;;;;;3.03;2.28;;;;;;;5.31;77.30;98822.56;5066646;28;20048;-67
2021/05/06 10:55:54;;;;;;;5.63;2.83;;;;;;;5.36;77.09;98848.22;5070130;28;20278;-67
2021/05/06 10:58:30;;;;;;;4.03;3.05;;;;;;;5.40;76.88;98843.91;5086319;28;20477;-68
2021/05/06 11:01:16;;;;;;;5.82;2.85;;;;;;;5.36;76.72;98853.38;5086273;28;20075;-67
2021/05/06 11:03:42;;;;;;;3.72;2.65;;;;;;;5.36;76.71;98849.94;5086574;28;20066;-67
2021/05/06 11:06:29;;;;;;;3.50;2.50;;;;;;;5.42;77.04;98853.28;5086418;28;20024;-67
2021/05/06 11:08:54;;;;;;;3.55;2.58;;;;;;;5.50;76.78;98862.63;5086195;28;20066;-68
2021/05/06 11:11:20;;;;;;;6.18;2.63;;;;;;;5.53;75.95;98865.16;5086296;28;20032;-67
2021/05/06 11:14:07;;;;;;;4.07;2.65;;;;;;;5.62;77.27;98865.06;5086128;28;20051;-67
2021/05/06 11:16:36;;;;;;;7.03;2.70;;;;;;;5.68;76.70;98857.28;5086272;28;20044;-67
2021/05/06 11:19:03;;;;;;;4.43;2.53;;;;;;;5.79;77.37;98874.28;5086052;28;20037;-67
2021/05/06 11:21:33;;;;;;;3.75;2.75;;;;;;;5.92;77.27;98874.97;5086274;28;20340;-67
2021/05/06 11:24:18;;;;;;;4.53;2.50;;;;;;;5.92;76.57;98870.69;5086122;28;20024;-67
2021/05/06 11:27:15;;;;;;;2.78;1.83;;;;;;;5.86;76.15;98877.63;5085935;28;20039;-67
2021/05/06 11:29:42;;;;;;;4.63;2.75;;;;;;;5.76;76.07;98869.19;5085516;28;20103;-67
2021/05/06 11:32:34;;;;;;;3.58;2.35;;;;;;;5.75;76.22;98886.34;5085877;28;20028;-67
2021/05/06 11:34:59;;;;;;;4.00;2.33;;;;;;;5.80;76.12;98881.13;5084971;28;20025;-67
2021/05/06 11:37:27;;;;;;;5.30;3.25;;;;;;;5.88;76.30;98883.63;5085780;28;20398;-67
2021/05/06 11:39:57;;;;;;;3.60;2.83;;;;;;;5.94;75.94;98884.38;5085860;28;20028;-67
2021/05/06 11:42:24;;;;;;;4.03;2.40;;;;;;;6.03;75.66;98885.97;5085824;28;20024;-67
2021/05/06 11:45:10;;;;;;;2.95;2.13;;;;;;;6.04;75.37;98884.22;5085701;28;20040;-67
2021/05/06 11:47:36;;;;;;;3.50;2.50;;;;;;;6.12;75.36;98887.59;5085765;28;20083;-66
2021/05/06 11:50:35;;;;;;;2.20;1.77;;;;;;;6.28;75.35;98895.09;5085750;28;20035;-67
2021/05/06 11:53:02;;;;;;;3.60;2.25;;;;;;;6.26;74.23;98889.13;5062325;28;20044;-67
2021/05/06 11:55:35;;;;;;;2.70;2.08;;;;;;;6.25;74.65;98898.56;5085399;28;20021;-67
2021/05/06 11:58:01;;;;;;;3.92;2.08;;;;;;;6.23;74.91;98899.47;5084943;28;20131;-66
2021/05/06 12:00:29;;;;;;;5.05;2.65;;;;;;;6.19;75.26;98885.78;5084852;28;20382;-67
2021/05/06 12:03:09;;;;;;;3.80;2.30;;;;;;;6.18;74.78;98889.25;5085173;28;20050;-68
2021/05/06 12:05:59;;;;;;;4.10;3.13;;;;;;;6.07;75.11;98887.66;5085148;28;20452;-67
2021/05/06 12:08:29;;;;;;;2.75;2.33;;;;;;;6.01;75.16;98900.59;5085144;28;20029;-66
2021/05/06 12:10:55;;;;;;;5.13;1.90;;;;;;;5.99;76.05;98899.75;5084885;28;20558;-66
2021/05/06 12:13:26;;;;;;;3.45;2.30;;;;;;;6.03;76.43;98903.16;5084577;28;20028;-67
2021/05/06 12:15:51;;;;;;;5.38;1.75;;;;;;;6.15;77.09;98900.44;5085045;28;20042;-69
2021/05/06 12:18:22;;;;;;;2.80;2.50;;;;;;;6.35;76.12;98899.28;5084861;28;20028;-68
2021/05/06 12:20:48;;;;;;;4.32;2.40;;;;;;;6.53;75.58;98907.59;5084694;28;20028;-68
2021/05/06 12:23:15;;;;;;;4.72;2.05;;;;;;;6.62;75.15;98906.59;5084787;28;20040;-67
2021/05/06 12:25:40;;;;;;;2.80;1.90;;;;;;;6.64;73.91;98916.03;5084556;28;20028;-67
2021/05/06 12:28:06;;;;;;;3.08;2.17;;;;;;;6.73;74.78;98919.31;5084495;28;20020;-67
2021/05/06 12:30:31;;;;;;;5.20;2.80;;;;;;;6.91;74.08;98908.69;5084319;28;20032;-66
2021/05/06 12:32:56;;;;;;;3.72;2.65;;;;;;;7.10;74.34;98916.09;5084469;28;20021;-66
2021/05/06 12:35:22;;;;;;;4.97;2.75;;;;;;;7.34;74.83;98916.53;5084300;28;20115;-67
2021/05/06 12:37:50;;;;;;;4.53;2.67;;;;;;;7.61;72.97;98919.44;5084170;28;20020;-68
2021/05/06 12:40:17;;;;;;;5.05;2.65;;;;;;;7.68;72.97;98910.66;5084232;28;20526;-66
2021/05/06 12:42:42;;;;;;;3.47;2.30;;;;;;;7.79;73.81;98918.22;5084115;28;20021;-67
2021/05/06 12:45:14;;;;;;;6.88;1.98;;;;;;;7.75;73.27;98918.28;5084098;28;20473;-67
2021/05/06 12:47:49;;;;;;;3.47;2.08;;;;;;;7.74;73.70;98914.88;5083773;28;20040;-67
2021/05/06 12:50:19;;;;;;;5.00;1.90;;;;;;;7.76;73.69;98915.69;5083874;28;20043;-67
2021/05/06 12:52:46;;;;;;;3.55;2.30;;;;;;;7.63;72.78;98928.00;5084247;28;20024;-66
2021/05/06 12:55:15;;;;;;;3.58;2.38;;;;;;;7.52;73.43;98930.81;5084230;28;20134;-68
2021/05/06 12:57:40;;;;;;;3.75;2.85;;;;;;;7.36;70.62;98914.78;5083759;28;20020;-66
2021/05/06 13:00:36;;;;;;;3.63;1.98;;;;;;;7.25;72.12;98937.34;5083610;28;20074;-67
2021/05/06 13:03:02;;;;;;;3.58;2.08;;;;;;;7.16;72.95;98941.78;5074930;28;20060;-67
2021/05/06 13:05:30;;;;;;;3.85;2.40;;;;;;;7.11;72.92;98927.28;5083800;28;20028;-67
2021/05/06 13:07:56;;;;;;;5.10;2.47;;;;;;;7.09;72.43;98931.63;5083635;28;20021;-67
2021/05/06 13:10:30;;;;;;;2.53;1.80;;;;;;;7.18;72.07;98946.94;5083616;28;20076;-68
2021/05/06 13:12:56;;;;;;;3.35;2.30;;;;;;;7.23;71.44;98941.69;5083398;28;20044;-67
2021/05/06 13:15:22;;;;;;;5.55;2.00;;;;;;;7.25;72.14;98940.75;5084105;28;20046;-67
2021/05/06 13:17:47;;;;;;;3.72;2.50;;;;;;;7.44;73.07;98946.44;5083861;28;20421;-68
2021/05/06 13:20:25;;;;;;;3.00;1.92;;;;;;;7.55;72.42;98953.13;5083656;28;20021;-68
2021/05/06 13:23:06;;;;;;;3.70;2.45;;;;;;;7.41;71.02;98949.06;5083844;28;20020;-68
2021/05/06 13:25:51;;;;;;;3.08;2.25;;;;;;;7.30;72.02;98951.03;5083520;28;20024;-68
2021/05/06 13:28:38;;;;;;;3.50;2.30;;;;;;;7.41;72.94;98954.25;5083258;28;20051;-68
2021/05/06 13:31:16;;;;;;;3.63;2.40;;;;;;;7.47;71.80;98952.44;5083239;28;20409;-68
2021/05/06 13:33:42;;;;;;;3.63;2.47;;;;;;;7.45;70.80;98949.88;5083679;28;20540;-68
2021/05/06 13:36:13;;;;;;;3.28;2.50;;;;;;;7.32;70.83;98954.41;5083649;28;20021;-67
2021/05/06 13:38:58;;;;;;;6.30;3.20;;;;;;;7.13;70.29;98954.75;5083385;28;20035;-67
2021/05/06 13:41:26;;;;;;;8.95;3.42;;;;;;;7.10;71.56;98959.97;5083506;28;20052;-67
2021/05/06 13:43:52;;;;;;;6.95;3.97;;;;;;;6.94;71.38;98969.69;5083098;28;20021;-66
2021/05/06 13:46:19;;;;;;;8.68;3.70;;;;;;;6.82;72.26;98963.88;5083334;28;20017;-66
2021/05/06 13:48:45;;;;;;;6.47;3.85;;;;;;;6.73;72.97;98965.72;5083387;28;20052;-68
2021/05/06 13:51:13;;;;;;;6.38;3.17;;;;;;;6.74;74.29;98967.47;5083291;28;20035;-67
2021/05/06 13:53:39;;;;;;;7.70;3.67;;;;;;;6.81;74.89;98975.06;5083440;28;20051;-67
2021/05/06 13:56:05;;;;;;;6.50;3.83;;;;;;;6.87;74.25;98973.28;5083574;28;20021;-66
2021/05/06 13:58:31;;;;;;;6.68;3.47;;;;;;;6.90;74.73;98965.47;5083967;28;20050;-66
2021/05/06 14:00:57;;;;;;;3.58;2.00;;;;;;;6.95;74.61;98973.97;5087290;28;20041;-67
2021/05/06 14:03:23;;;;;;;3.95;2.38;;;;;;;6.93;73.81;98980.91;5087445;28;20578;-66
2021/05/06 14:05:49;;;;;;;3.22;2.38;;;;;;;7.01;73.68;98981.63;5086194;28;20119;-67
2021/05/06 14:08:15;;;;;;;2.67;1.98;;;;;;;7.04;73.88;98984.16;5087592;28;20032;-66
2021/05/06 14:10:43;;;;;;;6.30;2.60;;;;;;;7.05;74.17;98983.28;5087586;28;20052;-67
2021/05/06 14:13:09;;;;;;;3.65;2.30;;;;;;;7.21;74.47;98988.16;5085804;28;20469;-67
2021/05/06 14:15:35;;;;;;;4.25;2.30;;;;;;;7.38;74.27;98985.28;5087217;28;20097;-67
2021/05/06 14:18:00;;;;;;;4.55;2.58;;;;;;;7.49;73.90;98984.25;5087390;28;20025;-67
2021/05/06 14:20:25;;;;;;;3.22;1.92;;;;;;;7.60;74.60;98994.38;5087047;28;20061;-67
2021/05/06 14:22:51;;;;;;;5.70;2.45;;;;;;;7.57;71.49;98998.72;5087246;28;20052;-67
2021/05/06 14:25:17;;;;;;;3.10;2.28;;;;;;;7.50;71.54;98997.13;5086994;28;20430;-67
2021/05/06 14:27:42;;;;;;;6.07;2.70;;;;;;;7.36;71.67;99002.56;5086869;28;20464;-66
2021/05/06 14:30:08;;;;;;;3.80;2.85;;;;;;;7.24;72.61;98998.44;5086776;28;20028;-69
2021/05/06 14:32:34;;;;;;;5.00;2.78;;;;;;;7.23;73.62;98998.47;5086823;28;20083;-67
2021/05/06 14:34:59;;;;;;;5.70;2.75;;;;;;;7.14;72.40;99002.91;5087054;28;20030;-68
2021/05/06 14:37:24;;;;;;;3.53;2.42;;;;;;;6.92;71.86;99003.28;5086781;28;20019;-67
2021/05/06 14:39:50;;;;;;;3.80;2.45;;;;;;;6.63;72.25;99011.47;5086770;28;20199;-68
2021/05/06 14:42:15;;;;;;;4.55;2.58;;;;;;;6.48;73.87;99013.41;5086752;28;20020;-66
2021/05/06 14:44:41;;;;;;;6.55;3.03;;;;;;;6.50;74.65;99016.78;5086629;28;20020;-67
2021/05/06 14:47:06;;;;;;;3.25;2.47;;;;;;;6.56;75.31;99014.16;5086639;28;20046;-68
2021/05/06 14:49:32;;;;;;;4.90;2.63;;;;;;;6.61;74.37;99018.38;5086554;28;20025;-68
2021/05/06 14:51:57;;;;;;;4.15;2.78;;;;;;;6.59;74.23;99012.38;5086355;28;20029;-68
2021/05/06 14:54:23;;;;;;;6.30;3.10;;;;;;;6.54;74.92;99008.16;5086591;28;20040;-67
2021/05/06 14:56:48;;;;;;;3.47;2.50;;;;;;;6.62;74.46;99015.78;5086727;28;20398;-68
2021/05/06 14:59:13;;;;;;;3.78;2.45;;;;;;;6.71;73.98;99009.59;5085966;28;20409;-67
2021/05/06 15:01:39;;;;;;;3.63;2.30;;;;;;;6.74;73.44;99006.97;5086387;28;20036;-67
2021/05/06 15:04:04;;;;;;;4.18;2.38;;;;;;;6.73;73.42;99013.03;5086358;28;20087;-67
2021/05/06 15:06:30;;;;;;;5.78;2.70;;;;;;;6.82;73.99;99012.88;5086246;28;20256;-67
2021/05/06 15:08:55;;;;;;;3.30;2.40;;;;;;;6.94;73.33;99019.59;5084741;28;20058;-67
2021/05/06 15:11:21;;;;;;;3.25;2.55;;;;;;;6.83;71.85;99003.41;5085985;28;20025;-68
2021/05/06 15:13:46;;;;;;;2.75;1.98;;;;;;;6.61;71.86;99015.78;5085710;28;20406;-67
2021/05/06 15:16:12;;;;;;;3.25;2.30;;;;;;;6.45;72.66;99024.59;5086051;28;20012;-67
2021/05/06 15:18:37;;;;;;;3.30;2.70;;;;;;;6.41;73.43;99011.75;5086009;28;20028;-67
2021/05/06 15:21:02;;;;;;;3.55;2.90;;;;;;;6.50;73.54;99016.78;5085897;28;20115;-67